Time;durP1;ratioP1;P1;durP2;ratioP2;P2;SDS_P1;SDS_P2;PMS_P1;PMS_P2;Temp;Humidity;BMP_temperature;BMP_pressure;BME280_temperature;BME280_humidity;BME280_pressure;Samples;Min_cycle;Max_cycle;Signal;HPM_P1;HPM_P2
2023/10/26 00:01:08;;;;;;;26.88;20.30;;;;;;;;;;5157661;27;20046;-80
2023/10/26 00:03:34;;;;;;;22.45;19.67;;;;;;;;;;5157677;27;20050;-81
2023/10/26 00:06:00;;;;;;;23.10;19.20;;;;;;;;;;5141257;27;20077;-81
2023/10/26 00:08:26;;;;;;;22.58;20.25;;;;;;;;;;5157425;27;20046;-80
2023/10/26 00:10:53;;;;;;;22.42;20.00;;;;;;;;;;5158444;27;20069;-80
2023/10/26 00:13:19;;;;;;;24.23;19.27;;;;;;;;;;5157643;27;20038;-80
2023/10/26 00:15:45;;;;;;;23.92;19.75;;;;;;;;;;5157215;27;20084;-80
2023/10/26 00:18:13;;;;;;;23.20;19.63;;;;;;;;;;5140243;27;20362;-80
2023/10/26 00:20:39;;;;;;;22.23;19.85;;;;;;;;;;5175752;27;20409;-80
2023/10/26 00:23:06;;;;;;;22.13;19.23;;;;;;;;;;5157242;27;20046;-81
2023/10/26 00:25:33;;;;;;;25.02;19.02;;;;;;;;;;5123594;27;20050;-80
2023/10/26 00:27:59;;;;;;;20.83;18.63;;;;;;;;;;5139911;27;20049;-80
2023/10/26 00:30:25;;;;;;;20.50;18.35;;;;;;;;;;5140193;27;20046;-80
2023/10/26 00:32:51;;;;;;;19.83;17.73;;;;;;;;;;5157211;27;20053;-80
2023/10/26 00:35:20;;;;;;;19.85;17.65;;;;;;;;;;5140042;27;20042;-80
2023/10/26 00:37:46;;;;;;;20.90;18.45;;;;;;;;;;5140135;27;20105;-80
2023/10/26 00:40:12;;;;;;;18.95;16.42;;;;;;;;;;5156971;27;20045;-80
2023/10/26 00:42:38;;;;;;;20.38;17.45;;;;;;;;;;5175642;27;20050;-80
2023/10/26 00:45:05;;;;;;;21.75;19.27;;;;;;;;;;5159560;27;20389;-80
2023/10/26 00:47:31;;;;;;;20.60;18.40;;;;;;;;;;5161843;27;20042;-80
2023/10/26 00:49:59;;;;;;;24.20;19.02;;;;;;;;;;5179270;27;20195;-80
2023/10/26 00:52:26;;;;;;;23.85;19.92;;;;;;;;;;5160908;27;20050;-80
2023/10/26 00:54:53;;;;;;;22.27;19.63;;;;;;;;;;5178786;27;20509;-80
2023/10/26 00:57:21;;;;;;;22.65;19.95;;;;;;;;;;5144093;27;20046;-80
2023/10/26 00:59:47;;;;;;;23.17;19.38;;;;;;;;;;5179150;27;20050;-80
2023/10/26 01:02:14;;;;;;;26.05;20.38;;;;;;;;;;5161410;27;20042;-80
2023/10/26 01:04:41;;;;;;;22.55;20.27;;;;;;;;;;5160483;27;20046;-80
2023/10/26 01:07:07;;;;;;;22.95;20.35;;;;;;;;;;5160622;27;20050;-80
2023/10/26 01:09:33;;;;;;;25.58;20.42;;;;;;;;;;5160610;27;20049;-80
2023/10/26 01:11:59;;;;;;;24.65;21.33;;;;;;;;;;5160822;27;20049;-80
2023/10/26 01:14:27;;;;;;;27.63;23.33;;;;;;;;;;5160516;27;20089;-80
2023/10/26 01:16:53;;;;;;;29.73;22.35;;;;;;;;;;5160353;27;20083;-80
2023/10/26 01:19:19;;;;;;;27.67;23.98;;;;;;;;;;5160819;27;20389;-80
2023/10/26 01:21:50;;;;;;;29.27;24.73;;;;;;;;;;5160238;27;20043;-80
2023/10/26 01:24:16;;;;;;;30.10;26.83;;;;;;;;;;5144065;27;20058;-80
2023/10/26 01:26:42;;;;;;;32.65;26.52;;;;;;;;;;5142705;27;20497;-80
2023/10/26 01:29:08;;;;;;;37.30;28.70;;;;;;;;;;5142954;27;20494;-80
2023/10/26 01:31:34;;;;;;;29.88;26.67;;;;;;;;;;5160101;27;20141;-80
2023/10/26 01:34:00;;;;;;;29.65;26.65;;;;;;;;;;5143021;27;20481;-80
2023/10/26 01:36:26;;;;;;;36.90;28.48;;;;;;;;;;5159925;27;20081;-80
2023/10/26 01:38:55;;;;;;;41.45;29.75;;;;;;;;;;5178952;27;20140;-80
2023/10/26 01:41:21;;;;;;;37.78;29.92;;;;;;;;;;5159866;27;20573;-80
2023/10/26 01:43:47;;;;;;;32.20;28.77;;;;;;;;;;5160715;27;20042;-79
2023/10/26 01:46:13;;;;;;;39.25;30.60;;;;;;;;;;5159883;27;20077;-80
2023/10/26 01:48:39;;;;;;;34.75;30.13;;;;;;;;;;5178245;27;20082;-80
2023/10/26 01:51:06;;;;;;;34.42;30.70;;;;;;;;;;5142067;27;20085;-80
2023/10/26 01:53:32;;;;;;;34.95;30.50;;;;;;;;;;5178381;27;20085;-80
2023/10/26 01:55:58;;;;;;;38.45;30.20;;;;;;;;;;5158354;27;20069;-79
2023/10/26 01:58:24;;;;;;;34.85;29.65;;;;;;;;;;5160428;27;20046;-80
2023/10/26 02:00:50;;;;;;;35.65;30.13;;;;;;;;;;5142254;27;20101;-80
2023/10/26 02:03:18;;;;;;;36.95;30.42;;;;;;;;;;5177821;27;20042;-80
2023/10/26 02:05:44;;;;;;;37.70;30.92;;;;;;;;;;5142918;27;20078;-80
2023/10/26 02:08:11;;;;;;;35.08;30.80;;;;;;;;;;5160173;27;20042;-80
2023/10/26 02:10:37;;;;;;;38.10;31.38;;;;;;;;;;5141865;27;20371;-80
2023/10/26 02:13:03;;;;;;;40.90;33.08;;;;;;;;;;5159342;27;20102;-80
2023/10/26 02:15:29;;;;;;;45.40;34.83;;;;;;;;;;5141837;27;20082;-80
2023/10/26 02:17:55;;;;;;;40.75;33.75;;;;;;;;;;5142820;27;20069;-80
2023/10/26 02:20:21;;;;;;;41.25;34.08;;;;;;;;;;5141691;27;20095;-80
2023/10/26 02:22:47;;;;;;;40.55;34.05;;;;;;;;;;5159099;27;20125;-80
2023/10/26 02:25:14;;;;;;;37.83;33.45;;;;;;;;;;5142675;27;20137;-80
2023/10/26 02:27:40;;;;;;;37.20;33.30;;;;;;;;;;5159579;27;20521;-81
2023/10/26 02:30:06;;;;;;;36.83;32.90;;;;;;;;;;5142238;27;20049;-80
2023/10/26 02:32:33;;;;;;;40.15;34.13;;;;;;;;;;5159706;27;20427;-81
2023/10/26 02:35:00;;;;;;;40.78;35.60;;;;;;;;;;5177167;27;20179;-80
2023/10/26 02:37:26;;;;;;;39.53;34.15;;;;;;;;;;5141640;27;20054;-80
2023/10/26 02:39:52;;;;;;;42.10;34.30;;;;;;;;;;5177955;27;20134;-80
2023/10/26 02:42:18;;;;;;;40.22;34.92;;;;;;;;;;5158608;27;20061;-80
2023/10/26 02:44:44;;;;;;;43.63;34.85;;;;;;;;;;5158663;27;20046;-80
2023/10/26 02:47:10;;;;;;;43.30;35.65;;;;;;;;;;5141185;27;20046;-80
2023/10/26 02:49:36;;;;;;;42.03;35.25;;;;;;;;;;5141227;27;20500;-80
2023/10/26 02:52:02;;;;;;;52.42;38.10;;;;;;;;;;5159434;27;20363;-80
2023/10/26 02:54:29;;;;;;;41.72;34.15;;;;;;;;;;5158069;27;20160;-80
2023/10/26 02:56:55;;;;;;;45.35;36.42;;;;;;;;;;5158446;27;20046;-81
2023/10/26 02:59:21;;;;;;;45.67;36.47;;;;;;;;;;5159191;27;20045;-80
2023/10/26 03:01:47;;;;;;;50.90;37.65;;;;;;;;;;5141154;27;20385;-80
2023/10/26 03:04:13;;;;;;;48.38;36.10;;;;;;;;;;5141392;27;20038;-80
2023/10/26 03:06:40;;;;;;;44.30;37.58;;;;;;;;;;5140966;27;20050;-80
2023/10/26 03:09:08;;;;;;;42.83;35.83;;;;;;;;;;5157998;27;20042;-81
2023/10/26 03:11:35;;;;;;;44.03;37.05;;;;;;;;;;5158181;27;20045;-80
2023/10/26 03:14:01;;;;;;;43.28;37.00;;;;;;;;;;5157854;27;20398;-80
2023/10/26 03:16:27;;;;;;;45.60;39.40;;;;;;;;;;5158154;27;20050;-80
2023/10/26 03:18:53;;;;;;;46.63;38.13;;;;;;;;;;5141287;27;20094;-80
2023/10/26 03:21:20;;;;;;;43.70;37.78;;;;;;;;;;5158925;27;20046;-80
2023/10/26 03:23:52;;;;;;;44.67;37.72;;;;;;;;;;5157983;27;20050;-80
2023/10/26 03:26:18;;;;;;;47.10;37.72;;;;;;;;;;5142097;27;20099;-80
2023/10/26 03:28:45;;;;;;;46.38;39.35;;;;;;;;;;5124659;27;20045;-80
2023/10/26 03:31:11;;;;;;;54.92;40.70;;;;;;;;;;5140681;27;20129;-80
2023/10/26 03:33:37;;;;;;;49.85;41.85;;;;;;;;;;5140558;27;20477;-80
2023/10/26 03:36:04;;;;;;;53.80;42.45;;;;;;;;;;5176302;27;20050;-80
2023/10/26 03:38:30;;;;;;;50.75;41.63;;;;;;;;;;5123311;27;20053;-80
2023/10/26 03:40:56;;;;;;;78.03;47.15;;;;;;;;;;5157961;27;20046;-80
2023/10/26 03:43:22;;;;;;;51.75;42.03;;;;;;;;;;5123793;27;20052;-80
2023/10/26 03:45:48;;;;;;;52.97;41.90;;;;;;;;;;5140876;27;20046;-80
2023/10/26 03:48:14;;;;;;;60.40;43.30;;;;;;;;;;5157673;27;20046;-80
2023/10/26 03:50:41;;;;;;;54.25;45.15;;;;;;;;;;5140386;27;20528;-80
2023/10/26 03:53:07;;;;;;;51.38;42.67;;;;;;;;;;5157741;27;20050;-80
2023/10/26 03:55:33;;;;;;;53.45;44.28;;;;;;;;;;5140139;27;20114;-80
2023/10/26 03:57:59;;;;;;;51.47;43.38;;;;;;;;;;5157498;27;20046;-80
2023/10/26 04:00:25;;;;;;;49.88;42.17;;;;;;;;;;5157677;27;20050;-80
2023/10/26 04:02:51;;;;;;;54.35;43.53;;;;;;;;;;5140407;27;20046;-80
2023/10/26 04:05:18;;;;;;;53.83;43.33;;;;;;;;;;5157551;27;20038;-80
2023/10/26 04:07:44;;;;;;;50.45;42.72;;;;;;;;;;5157119;27;20517;-80
2023/10/26 04:10:10;;;;;;;53.35;42.55;;;;;;;;;;5157418;27;20042;-80
2023/10/26 04:12:36;;;;;;;54.33;40.83;;;;;;;;;;5176494;27;20046;-80
2023/10/26 04:15:03;;;;;;;49.50;41.75;;;;;;;;;;5158207;27;20064;-80
2023/10/26 04:17:29;;;;;;;58.60;42.83;;;;;;;;;;5175857;27;20102;-80
2023/10/26 04:19:55;;;;;;;50.03;40.35;;;;;;;;;;5158714;27;20047;-81
2023/10/26 04:22:21;;;;;;;53.63;43.42;;;;;;;;;;5179706;27;20470;-81
2023/10/26 04:24:47;;;;;;;48.90;41.33;;;;;;;;;;5161686;27;20046;-80
2023/10/26 04:27:13;;;;;;;53.60;39.97;;;;;;;;;;5161072;27;20046;-79
2023/10/26 04:29:39;;;;;;;53.55;42.13;;;;;;;;;;5161370;27;20050;-80
2023/10/26 04:32:05;;;;;;;51.75;41.80;;;;;;;;;;5162001;27;20042;-81
2023/10/26 04:34:31;;;;;;;50.88;40.90;;;;;;;;;;5161889;27;20061;-80
2023/10/26 04:36:57;;;;;;;50.05;40.45;;;;;;;;;;5160969;27;20050;-80
2023/10/26 04:39:24;;;;;;;53.75;41.88;;;;;;;;;;5161491;27;20042;-80
2023/10/26 04:41:50;;;;;;;52.00;42.13;;;;;;;;;;5126751;27;20054;-80
2023/10/26 04:44:18;;;;;;;56.60;42.53;;;;;;;;;;5143736;27;20046;-80
2023/10/26 04:46:44;;;;;;;57.22;42.70;;;;;;;;;;5179498;27;20072;-80
2023/10/26 04:49:10;;;;;;;49.78;41.38;;;;;;;;;;5179281;27;20038;-80
2023/10/26 04:51:36;;;;;;;53.38;42.38;;;;;;;;;;5160914;27;20061;-80
2023/10/26 04:54:02;;;;;;;54.10;42.25;;;;;;;;;;5160844;27;20446;-80
2023/10/26 04:56:30;;;;;;;57.05;41.00;;;;;;;;;;5144526;27;20046;-80
2023/10/26 04:58:56;;;;;;;54.17;42.13;;;;;;;;;;5160667;27;20482;-80
2023/10/26 05:01:22;;;;;;;55.33;41.75;;;;;;;;;;5160909;27;20121;-80
2023/10/26 05:03:48;;;;;;;54.72;40.13;;;;;;;;;;5160501;27;20085;-80
2023/10/26 05:06:14;;;;;;;48.00;40.50;;;;;;;;;;5144216;27;20046;-80
2023/10/26 05:08:40;;;;;;;57.15;41.85;;;;;;;;;;5178985;27;20044;-81
2023/10/26 05:11:07;;;;;;;44.83;37.38;;;;;;;;;;5127151;27;20078;-80
2023/10/26 05:13:33;;;;;;;50.45;40.38;;;;;;;;;;5178857;27;20046;-80
2023/10/26 05:15:59;;;;;;;50.50;40.95;;;;;;;;;;5159800;27;20050;-80
2023/10/26 05:18:25;;;;;;;48.97;39.80;;;;;;;;;;5178776;27;20434;-80
2023/10/26 05:20:51;;;;;;;50.33;40.50;;;;;;;;;;5160320;27;20042;-80
2023/10/26 05:23:17;;;;;;;50.92;41.78;;;;;;;;;;5160643;27;20144;-80
2023/10/26 05:25:43;;;;;;;52.00;41.95;;;;;;;;;;5160163;27;20125;-80
2023/10/26 05:28:09;;;;;;;46.50;39.50;;;;;;;;;;5178570;27;20046;-79
2023/10/26 05:30:35;;;;;;;46.92;39.83;;;;;;;;;;5143634;27;20373;-80
2023/10/26 05:33:01;;;;;;;53.08;41.05;;;;;;;;;;5179074;27;20042;-80
2023/10/26 05:35:27;;;;;;;47.95;39.20;;;;;;;;;;5142982;27;20046;-80
2023/10/26 05:37:54;;;;;;;51.33;40.88;;;;;;;;;;5178451;27;20050;-80
2023/10/26 05:40:20;;;;;;;50.03;39.92;;;;;;;;;;5125965;27;20100;-80
2023/10/26 05:42:46;;;;;;;48.33;40.20;;;;;;;;;;5143026;27;20050;-80
2023/10/26 05:45:12;;;;;;;43.83;38.90;;;;;;;;;;5142710;27;20537;-80
2023/10/26 05:47:38;;;;;;;49.22;40.08;;;;;;;;;;5125551;27;20050;-79
2023/10/26 05:50:05;;;;;;;64.57;45.65;;;;;;;;;;5142593;27;20496;-79
2023/10/26 05:52:31;;;;;;;80.88;46.95;;;;;;;;;;5125341;27;20098;-79
2023/10/26 05:54:57;;;;;;;71.00;46.63;;;;;;;;;;5141862;27;20054;-80
2023/10/26 05:57:25;;;;;;;48.08;40.17;;;;;;;;;;5142686;27;20373;-80
2023/10/26 05:59:52;;;;;;;52.38;40.90;;;;;;;;;;5142300;27;20046;-80
2023/10/26 06:02:18;;;;;;;47.58;40.67;;;;;;;;;;5159505;27;20054;-81
2023/10/26 06:04:44;;;;;;;41.63;37.03;;;;;;;;;;5159332;27;20043;-81
2023/10/26 06:07:10;;;;;;;41.03;36.58;;;;;;;;;;5142115;27;20047;-80
2023/10/26 06:09:36;;;;;;;46.60;36.70;;;;;;;;;;5125173;27;20050;-80
2023/10/26 06:12:02;;;;;;;40.83;35.97;;;;;;;;;;5159385;27;20496;-80
2023/10/26 06:14:28;;;;;;;41.50;35.22;;;;;;;;;;5159237;27;20406;-80
2023/10/26 06:16:54;;;;;;;43.80;36.70;;;;;;;;;;5159141;27;20050;-80
2023/10/26 06:19:20;;;;;;;46.92;37.80;;;;;;;;;;5177583;27;20046;-80
2023/10/26 06:21:46;;;;;;;50.03;38.15;;;;;;;;;;5141886;27;20046;-80
2023/10/26 06:24:13;;;;;;;55.38;40.35;;;;;;;;;;5158850;27;20049;-80
2023/10/26 06:26:39;;;;;;;38.47;33.30;;;;;;;;;;5159366;27;20371;-80
2023/10/26 06:29:05;;;;;;;45.88;35.90;;;;;;;;;;5141416;27;20133;-80
2023/10/26 06:31:31;;;;;;;39.33;35.17;;;;;;;;;;5141797;27;20042;-79
2023/10/26 06:33:57;;;;;;;39.65;34.53;;;;;;;;;;5158772;27;20103;-80
2023/10/26 06:36:23;;;;;;;37.85;33.78;;;;;;;;;;5141395;27;20522;-80
2023/10/26 06:38:49;;;;;;;38.40;34.08;;;;;;;;;;5158628;27;20089;-80
2023/10/26 06:41:15;;;;;;;40.05;35.08;;;;;;;;;;5141676;27;20046;-80
2023/10/26 06:43:42;;;;;;;44.42;35.22;;;;;;;;;;5140804;27;20133;-80
2023/10/26 06:46:09;;;;;;;38.67;34.10;;;;;;;;;;5141294;27;20054;-80
2023/10/26 06:48:35;;;;;;;37.85;32.60;;;;;;;;;;5142227;27;20410;-80
2023/10/26 06:51:02;;;;;;;47.85;35.67;;;;;;;;;;5158867;27;20086;-80
2023/10/26 06:53:29;;;;;;;39.65;34.38;;;;;;;;;;5158629;27;20454;-80
2023/10/26 06:55:55;;;;;;;42.85;34.42;;;;;;;;;;5159059;27;20049;-80
2023/10/26 06:58:22;;;;;;;39.22;33.05;;;;;;;;;;5158218;27;20046;-80
2023/10/26 07:00:48;;;;;;;35.60;31.60;;;;;;;;;;5157760;27;20125;-80
2023/10/26 07:03:14;;;;;;;36.47;32.33;;;;;;;;;;5158422;27;20128;-80
2023/10/26 07:05:41;;;;;;;39.33;33.38;;;;;;;;;;5158278;27;20077;-80
2023/10/26 07:08:07;;;;;;;35.83;31.92;;;;;;;;;;5159047;27;20113;-80
2023/10/26 07:10:33;;;;;;;32.35;28.92;;;;;;;;;;5140844;27;20042;-80
2023/10/26 07:12:59;;;;;;;33.88;30.23;;;;;;;;;;5141881;27;20369;-80
2023/10/26 07:15:25;;;;;;;38.47;33.85;;;;;;;;;;5158006;27;20042;-80
2023/10/26 07:17:51;;;;;;;36.83;31.58;;;;;;;;;;5158157;27;20454;-80
2023/10/26 07:20:18;;;;;;;35.00;31.33;;;;;;;;;;5140794;27;20053;-80
2023/10/26 07:22:44;;;;;;;34.72;31.02;;;;;;;;;;5158220;27;20377;-80
2023/10/26 07:25:10;;;;;;;41.88;34.40;;;;;;;;;;5140917;27;20030;-80
2023/10/26 07:27:38;;;;;;;39.75;33.03;;;;;;;;;;5141884;27;20034;-80
2023/10/26 07:30:04;;;;;;;43.13;35.00;;;;;;;;;;5158364;27;20117;-80
2023/10/26 07:32:31;;;;;;;40.80;36.25;;;;;;;;;;5158050;27;20034;-80
2023/10/26 07:34:58;;;;;;;43.10;36.70;;;;;;;;;;5123605;27;20052;-80
2023/10/26 07:37:24;;;;;;;39.47;35.17;;;;;;;;;;5157786;27;20038;-80
2023/10/26 07:39:50;;;;;;;50.13;39.13;;;;;;;;;;5140698;27;20085;-80
2023/10/26 07:42:16;;;;;;;59.25;42.92;;;;;;;;;;5157889;27;20064;-80
2023/10/26 07:44:43;;;;;;;112.25;49.75;;;;;;;;;;5176310;27;20045;-80
2023/10/26 07:47:09;;;;;;;59.45;44.90;;;;;;;;;;5140399;27;20130;-80
2023/10/26 07:49:35;;;;;;;60.08;43.17;;;;;;;;;;5157554;27;20042;-80
2023/10/26 07:52:01;;;;;;;55.55;42.13;;;;;;;;;;5141393;27;20093;-80
2023/10/26 07:54:27;;;;;;;50.90;42.22;;;;;;;;;;5178797;27;20089;-80
2023/10/26 07:56:53;;;;;;;52.60;41.80;;;;;;;;;;5180502;27;20117;-80
2023/10/26 07:59:19;;;;;;;58.10;43.40;;;;;;;;;;5127831;27;20042;-80
2023/10/26 08:01:47;;;;;;;60.90;44.17;;;;;;;;;;5144745;27;20076;-80
2023/10/26 08:04:13;;;;;;;53.53;41.47;;;;;;;;;;5144729;27;20466;-80
2023/10/26 08:06:39;;;;;;;48.83;40.50;;;;;;;;;;5162341;27;20418;-80
2023/10/26 08:09:06;;;;;;;49.92;39.88;;;;;;;;;;5161668;27;20049;-80
2023/10/26 08:11:32;;;;;;;47.38;37.13;;;;;;;;;;5144866;27;20060;-81
2023/10/26 08:13:58;;;;;;;46.00;39.55;;;;;;;;;;5144141;27;20081;-80
2023/10/26 08:16:24;;;;;;;44.40;37.63;;;;;;;;;;5161980;27;20038;-80
2023/10/26 08:18:51;;;;;;;47.25;39.10;;;;;;;;;;5161949;27;20045;-80
2023/10/26 08:21:17;;;;;;;44.00;37.65;;;;;;;;;;5161433;27;20069;-80
2023/10/26 08:23:43;;;;;;;51.42;39.92;;;;;;;;;;5161600;27;20085;-80
2023/10/26 08:26:10;;;;;;;47.53;38.90;;;;;;;;;;5127185;27;20093;-80
2023/10/26 08:28:36;;;;;;;42.95;37.65;;;;;;;;;;5144145;27;20057;-80
2023/10/26 08:31:03;;;;;;;45.70;39.83;;;;;;;;;;5144285;27;20050;-80
2023/10/26 08:33:35;;;;;;;50.05;39.03;;;;;;;;;;5144350;27;20042;-80
2023/10/26 08:36:02;;;;;;;52.08;39.50;;;;;;;;;;5145132;27;20046;-80
2023/10/26 08:38:28;;;;;;;46.22;38.15;;;;;;;;;;5161228;27;20478;-80
2023/10/26 08:40:54;;;;;;;42.88;34.92;;;;;;;;;;5162068;27;20042;-80
2023/10/26 08:43:21;;;;;;;43.55;36.35;;;;;;;;;;5144695;27;20128;-80
2023/10/26 08:45:48;;;;;;;39.65;35.38;;;;;;;;;;5161166;27;20133;-80
2023/10/26 08:48:18;;;;;;;37.75;33.67;;;;;;;;;;5180093;27;20060;-80
2023/10/26 08:50:45;;;;;;;40.40;33.30;;;;;;;;;;5160810;27;20160;-80
2023/10/26 08:53:12;;;;;;;40.97;33.35;;;;;;;;;;5143767;27;20045;-80
2023/10/26 08:55:42;;;;;;;37.53;33.50;;;;;;;;;;5144224;27;20060;-80
2023/10/26 08:58:08;;;;;;;37.13;33.30;;;;;;;;;;5160705;27;20390;-80
2023/10/26 09:00:40;;;;;;;41.53;34.40;;;;;;;;;;5179234;27;20045;-80
2023/10/26 09:03:06;;;;;;;43.05;34.67;;;;;;;;;;5161793;27;20041;-80
2023/10/26 09:05:33;;;;;;;36.15;32.22;;;;;;;;;;5142841;27;20121;-81
2023/10/26 09:07:59;;;;;;;34.67;31.00;;;;;;;;;;5160503;27;20038;-80
2023/10/26 09:10:29;;;;;;;34.53;30.98;;;;;;;;;;5160653;27;20046;-80
2023/10/26 09:13:03;;;;;;;34.22;30.75;;;;;;;;;;5143309;27;20044;-80
2023/10/26 09:15:29;;;;;;;34.27;30.30;;;;;;;;;;5160264;27;20083;-80
2023/10/26 09:17:57;;;;;;;34.45;31.10;;;;;;;;;;5178911;27;20038;-80
2023/10/26 09:20:24;;;;;;;38.97;32.40;;;;;;;;;;5143536;27;20108;-80
2023/10/26 09:22:50;;;;;;;35.25;31.52;;;;;;;;;;5160308;27;20042;-80
2023/10/26 09:25:16;;;;;;;33.10;29.83;;;;;;;;;;5126390;27;20357;-79
2023/10/26 09:27:43;;;;;;;33.38;29.92;;;;;;;;;;5160431;27;20038;-79
2023/10/26 09:30:26;;;;;;;35.38;31.50;;;;;;;;;;5160268;27;20540;-80
2023/10/26 09:32:52;;;;;;;32.55;29.20;;;;;;;;;;5159791;27;20042;-80
2023/10/26 09:35:27;;;;;;;32.22;28.77;;;;;;;;;;5179105;27;20072;-80
2023/10/26 09:37:53;;;;;;;30.60;27.33;;;;;;;;;;5160071;27;20050;-80
2023/10/26 09:40:20;;;;;;;31.25;28.25;;;;;;;;;;5159927;27;20129;-80
2023/10/26 09:42:47;;;;;;;34.13;29.17;;;;;;;;;;5178371;27;20509;-80
2023/10/26 09:45:14;;;;;;;30.15;26.90;;;;;;;;;;5160070;27;20050;-80
2023/10/26 09:47:40;;;;;;;28.70;25.70;;;;;;;;;;5159791;27;20042;-80
2023/10/26 09:50:08;;;;;;;27.08;24.30;;;;;;;;;;5159706;27;20042;-80
2023/10/26 09:52:35;;;;;;;27.42;24.60;;;;;;;;;;5178167;27;20042;-80
2023/10/26 09:55:03;;;;;;;27.85;25.05;;;;;;;;;;5142018;27;20383;-80
2023/10/26 09:57:35;;;;;;;27.33;24.52;;;;;;;;;;5159273;27;20074;-80
2023/10/26 10:00:07;;;;;;;27.30;24.45;;;;;;;;;;5178276;27;20042;-80
2023/10/26 10:02:33;;;;;;;24.05;21.73;;;;;;;;;;5160424;27;20065;-79
2023/10/26 10:04:59;;;;;;;25.02;22.73;;;;;;;;;;5177829;27;20039;-80
2023/10/26 10:07:45;;;;;;;26.73;23.83;;;;;;;;;;5143093;27;20339;-80
2023/10/26 10:10:12;;;;;;;27.50;24.58;;;;;;;;;;5178109;27;20393;-80
2023/10/26 10:12:40;;;;;;;25.50;23.20;;;;;;;;;;5159337;27;20050;-79
2023/10/26 10:15:13;;;;;;;26.45;23.98;;;;;;;;;;5159050;27;20078;-80
2023/10/26 10:17:45;;;;;;;26.52;23.92;;;;;;;;;;5158219;27;20054;-80
2023/10/26 10:20:14;;;;;;;25.75;23.15;;;;;;;;;;5159110;27;20045;-80
2023/10/26 10:22:41;;;;;;;24.25;21.63;;;;;;;;;;5159702;27;20394;-79
2023/10/26 10:25:11;;;;;;;24.52;22.08;;;;;;;;;;5158557;27;20042;-80
2023/10/26 10:27:40;;;;;;;26.40;23.67;;;;;;;;;;5159609;27;20485;-79
2023/10/26 10:30:13;;;;;;;25.27;22.75;;;;;;;;;;5141604;27;20049;-79
2023/10/26 10:32:42;;;;;;;24.25;22.02;;;;;;;;;;5177299;27;20087;-79
2023/10/26 10:35:09;;;;;;;23.75;21.35;;;;;;;;;;5141623;27;20049;-79
2023/10/26 10:37:36;;;;;;;24.75;22.35;;;;;;;;;;5159352;27;20046;-80
2023/10/26 10:40:09;;;;;;;22.48;20.38;;;;;;;;;;5159045;27;20038;-79
2023/10/26 10:42:35;;;;;;;24.25;21.75;;;;;;;;;;5158968;27;20084;-78
2023/10/26 10:45:03;;;;;;;23.60;21.45;;;;;;;;;;5158704;27;20078;-79
2023/10/26 10:47:30;;;;;;;21.55;19.65;;;;;;;;;;5141481;27;20050;-79
2023/10/26 10:50:15;;;;;;;23.48;21.05;;;;;;;;;;5158575;27;20054;-79
2023/10/26 10:52:41;;;;;;;21.58;19.38;;;;;;;;;;5142312;27;20081;-79
2023/10/26 10:55:08;;;;;;;21.20;19.30;;;;;;;;;;5158038;27;20149;-79
2023/10/26 10:57:34;;;;;;;21.50;19.55;;;;;;;;;;5158317;27;20132;-79
2023/10/26 11:00:00;;;;;;;20.23;18.38;;;;;;;;;;5158758;27;20042;-79
2023/10/26 11:02:26;;;;;;;22.75;20.55;;;;;;;;;;5141195;27;20485;-79
2023/10/26 11:05:05;;;;;;;22.27;20.25;;;;;;;;;;5140967;27;20042;-78
2023/10/26 11:07:31;;;;;;;21.13;19.15;;;;;;;;;;5158713;27;20488;-79
2023/10/26 11:09:58;;;;;;;22.17;19.83;;;;;;;;;;5158368;27;20541;-79
2023/10/26 11:12:24;;;;;;;22.55;20.38;;;;;;;;;;5158127;27;20086;-79
2023/10/26 11:14:51;;;;;;;22.02;19.83;;;;;;;;;;5176586;27;20042;-79
2023/10/26 11:17:21;;;;;;;21.20;19.27;;;;;;;;;;5158211;27;20057;-79
2023/10/26 11:19:51;;;;;;;18.27;16.55;;;;;;;;;;5158161;27;20061;-79
2023/10/26 11:22:18;;;;;;;19.42;17.73;;;;;;;;;;5158977;27;20056;-79
2023/10/26 11:24:44;;;;;;;16.55;14.98;;;;;;;;;;5140834;27;20072;-80
2023/10/26 11:27:12;;;;;;;19.35;15.15;;;;;;;;;;5141696;27;20046;-79
2023/10/26 11:29:40;;;;;;;16.60;15.10;;;;;;;;;;5157552;27;20046;-79
2023/10/26 11:32:25;;;;;;;17.02;15.32;;;;;;;;;;5157439;27;20049;-78
2023/10/26 11:34:51;;;;;;;;;;;;;;;;;;5141395;27;20035;-79
2023/10/26 11:37:24;;;;;;;17.33;15.77;;;;;;;;;;5158783;27;19930;-79
2023/10/26 11:39:50;;;;;;;16.48;15.02;;;;;;;;;;5176327;27;20038;-79
2023/10/26 11:42:16;;;;;;;18.85;16.95;;;;;;;;;;5177144;27;20057;-79
2023/10/26 11:44:43;;;;;;;18.10;16.38;;;;;;;;;;5177078;27;20070;-79
2023/10/26 11:47:09;;;;;;;15.82;14.52;;;;;;;;;;5157885;27;20054;-79
2023/10/26 11:49:42;;;;;;;14.60;13.38;;;;;;;;;;5157797;27;20493;-79
2023/10/26 11:52:08;;;;;;;14.32;13.00;;;;;;;;;;5158619;27;20474;-79
2023/10/26 11:54:34;;;;;;;14.05;12.85;;;;;;;;;;5140104;27;20058;-79
2023/10/26 11:57:01;;;;;;;13.32;12.15;;;;;;;;;;5140499;27;20481;-79
2023/10/26 11:59:27;;;;;;;11.80;10.73;;;;;;;;;;5123417;27;20049;-79
2023/10/26 12:01:53;;;;;;;12.30;11.20;;;;;;;;;;5140595;27;20042;-79
2023/10/26 12:04:19;;;;;;;13.07;11.98;;;;;;;;;;5157694;27;20089;-79
2023/10/26 12:06:45;;;;;;;12.75;11.65;;;;;;;;;;5176061;27;20050;-79
2023/10/26 12:09:13;;;;;;;12.80;11.45;;;;;;;;;;5157544;27;20057;-78
2023/10/26 12:11:41;;;;;;;12.23;11.23;;;;;;;;;;5157858;27;20053;-79
2023/10/26 12:14:07;;;;;;;12.60;11.57;;;;;;;;;;5157009;27;20517;-79
2023/10/26 12:16:33;;;;;;;11.60;10.70;;;;;;;;;;5140640;27;20368;-78
2023/10/26 12:18:59;;;;;;;11.60;10.60;;;;;;;;;;5157486;27;20125;-79
2023/10/26 12:21:25;;;;;;;12.25;11.30;;;;;;;;;;5157420;27;20038;-78
2023/10/26 12:23:51;;;;;;;11.85;10.85;;;;;;;;;;5157418;27;20439;-79
2023/10/26 12:26:17;;;;;;;10.60;9.77;;;;;;;;;;5140079;27;20050;-79
2023/10/26 12:28:44;;;;;;;10.23;9.43;;;;;;;;;;5157355;27;20055;-79
2023/10/26 12:31:10;;;;;;;11.13;10.15;;;;;;;;;;5122980;27;20497;-79
2023/10/26 12:33:36;;;;;;;11.27;10.27;;;;;;;;;;5176507;27;20039;-79
2023/10/26 12:36:02;;;;;;;10.70;9.85;;;;;;;;;;5157031;27;20090;-78
2023/10/26 12:38:28;;;;;;;9.43;8.70;;;;;;;;;;5140009;27;20065;-80
2023/10/26 12:40:54;;;;;;;11.93;10.80;;;;;;;;;;5124452;27;20049;-78
2023/10/26 12:43:20;;;;;;;11.70;10.80;;;;;;;;;;5161156;27;20053;-79
2023/10/26 12:45:46;;;;;;;11.15;10.35;;;;;;;;;;5143806;27;20042;-79
2023/10/26 12:48:12;;;;;;;11.68;10.75;;;;;;;;;;5161430;27;20046;-79
2023/10/26 12:50:39;;;;;;;10.73;9.85;;;;;;;;;;5160983;27;20202;-78
2023/10/26 12:53:05;;;;;;;10.63;9.73;;;;;;;;;;5160657;27;20109;-79
2023/10/26 12:55:32;;;;;;;10.13;9.40;;;;;;;;;;5143619;27;20054;-79
2023/10/26 12:57:58;;;;;;;11.05;10.05;;;;;;;;;;5160659;27;20054;-79
2023/10/26 13:00:25;;;;;;;11.48;10.57;;;;;;;;;;5160307;27;20540;-79
2023/10/26 13:02:51;;;;;;;10.90;9.90;;;;;;;;;;5160990;27;20061;-79
2023/10/26 13:05:17;;;;;;;11.05;9.98;;;;;;;;;;5160626;27;20096;-79
2023/10/26 13:07:43;;;;;;;10.98;9.75;;;;;;;;;;5179036;27;20035;-79
2023/10/26 13:10:09;;;;;;;11.00;10.20;;;;;;;;;;5160603;27;20090;-80
2023/10/26 13:12:36;;;;;;;12.95;10.63;;;;;;;;;;5161352;27;20050;-79
2023/10/26 13:15:02;;;;;;;11.20;10.30;;;;;;;;;;5160408;27;20035;-79
2023/10/26 13:17:28;;;;;;;10.98;10.02;;;;;;;;;;5178540;27;20555;-80
2023/10/26 13:19:54;;;;;;;11.95;10.75;;;;;;;;;;5160306;27;20046;-79
2023/10/26 13:22:20;;;;;;;11.60;10.70;;;;;;;;;;5160131;27;20049;-80
2023/10/26 13:24:46;;;;;;;11.93;10.98;;;;;;;;;;5142824;27;20386;-81
2023/10/26 13:27:13;;;;;;;11.75;10.85;;;;;;;;;;5159967;27;20038;-80
2023/10/26 13:29:39;;;;;;;11.02;10.07;;;;;;;;;;5160401;27;20179;-79
2023/10/26 13:32:05;;;;;;;11.75;10.80;;;;;;;;;;5178555;27;20042;-79
2023/10/26 13:34:31;;;;;;;12.05;10.98;;;;;;;;;;5160863;27;20125;-79
2023/10/26 13:36:57;;;;;;;11.52;10.60;;;;;;;;;;5142523;27;20482;-79
2023/10/26 13:39:23;;;;;;;12.63;11.50;;;;;;;;;;5159940;27;20049;-79
2023/10/26 13:41:49;;;;;;;11.52;10.52;;;;;;;;;;5142780;27;20078;-79
2023/10/26 13:44:16;;;;;;;11.68;10.57;;;;;;;;;;5178325;27;20039;-79
2023/10/26 13:46:42;;;;;;;10.38;9.60;;;;;;;;;;5143404;27;20042;-79
2023/10/26 13:49:10;;;;;;;11.65;10.60;;;;;;;;;;5159902;27;20046;-79
2023/10/26 13:51:36;;;;;;;12.40;10.82;;;;;;;;;;5159563;27;20044;-79
2023/10/26 13:54:02;;;;;;;9.98;9.20;;;;;;;;;;5142377;27;20034;-79
2023/10/26 13:56:29;;;;;;;10.63;9.73;;;;;;;;;;5142925;27;20081;-80
2023/10/26 13:58:55;;;;;;;11.77;10.57;;;;;;;;;;5159716;27;20477;-78
2023/10/26 14:01:21;;;;;;;13.25;10.45;;;;;;;;;;5178053;27;20042;-79
2023/10/26 14:03:47;;;;;;;11.70;10.70;;;;;;;;;;5159632;27;20098;-79
2023/10/26 14:06:13;;;;;;;10.82;10.02;;;;;;;;;;5159448;27;20045;-79
2023/10/26 14:08:39;;;;;;;10.95;10.15;;;;;;;;;;5159564;27;20039;-79
2023/10/26 14:11:05;;;;;;;11.52;10.60;;;;;;;;;;5159426;27;20044;-79
2023/10/26 14:13:31;;;;;;;11.25;10.30;;;;;;;;;;5142195;27;20049;-79
2023/10/26 14:15:57;;;;;;;11.68;10.77;;;;;;;;;;5159028;27;20050;-78